createdAt,value
2023-05-15T00:02:22.560Z,102550.69
2023-05-15T00:04:49.532Z,102538.56
2023-05-15T00:07:16.802Z,102547.25
2023-05-15T00:09:43.603Z,102545.56
2023-05-15T00:12:10.551Z,102542.97
2023-05-15T00:14:37.498Z,102543.84
2023-05-15T00:17:04.320Z,102545.56
2023-05-15T00:19:31.038Z,102552.50
2023-05-15T00:21:57.832Z,102544.75
2023-05-15T00:24:24.559Z,102547.38
2023-05-15T00:26:51.310Z,102554.31
2023-05-15T00:29:18.112Z,102559.50
2023-05-15T00:31:45.002Z,102552.56
2023-05-15T00:34:11.858Z,102539.63
2023-05-15T00:36:38.636Z,102555.22
2023-05-15T00:39:05.368Z,102556.94
2023-05-15T00:41:33.606Z,102556.94
2023-05-15T00:44:02.415Z,102564.75
2023-05-15T00:46:31.744Z,102563.03
2023-05-15T00:48:59.009Z,102567.38
2023-05-15T00:51:26.983Z,102572.56
2023-05-15T00:53:54.988Z,102565.63
2023-05-15T00:56:22.446Z,102573.41
2023-05-15T00:58:50.759Z,102576.88
2023-05-15T01:01:18.112Z,102569.06
2023-05-15T01:03:44.969Z,102572.56
2023-05-15T01:06:12.363Z,102564.78
2023-05-15T01:08:49.898Z,102566.50
2023-05-15T01:11:18.130Z,102567.41
2023-05-15T01:13:44.957Z,102569.09
2023-05-15T01:16:11.986Z,102559.59
2023-05-15T01:18:39.015Z,102565.63
2023-05-15T01:21:28.811Z,102562.19
2023-05-15T01:24:11.818Z,102560.47
2023-05-15T01:26:50.430Z,102562.22
2023-05-15T01:29:27.499Z,102566.53
2023-05-15T01:32:07.070Z,102560.47
2023-05-15T01:34:54.023Z,102562.22
2023-05-15T01:37:26.080Z,102574.31
2023-05-15T01:39:58.273Z,102567.41
2023-05-15T01:42:30.930Z,102567.41
2023-05-15T01:45:02.135Z,102571.72
2023-05-15T01:47:36.773Z,102577.78
2023-05-15T01:50:05.443Z,102581.25
2023-05-15T01:52:38.828Z,102576.94
2023-05-15T01:55:08.703Z,102579.50
2023-05-15T01:57:37.274Z,102582.13
2023-05-15T02:00:05.222Z,102586.44
2023-05-15T02:02:33.292Z,102576.03
2023-05-15T02:05:01.536Z,102576.03
2023-05-15T02:07:29.052Z,102583.78
2023-05-15T02:09:57.838Z,102581.22
2023-05-15T02:12:24.795Z,102577.75
2023-05-15T02:14:52.993Z,102579.50
2023-05-15T02:17:21.670Z,102581.22
2023-05-15T02:19:48.496Z,102583.81
2023-05-15T02:22:15.235Z,102585.56
2023-05-15T02:24:42.100Z,102576.91
2023-05-15T02:27:17.699Z,102562.19
2023-05-15T02:30:11.994Z,102582.06
2023-05-15T02:33:01.184Z,102585.53
2023-05-15T02:35:56.640Z,102586.38
2023-05-15T02:38:31.192Z,102584.66
2023-05-15T02:41:00.862Z,102587.25
2023-05-15T02:43:28.753Z,102588.97
2023-05-15T02:45:57.169Z,102580.34
2023-05-15T02:48:24.809Z,102588.94
2023-05-15T02:50:52.986Z,102588.09
2023-05-15T02:53:19.772Z,102588.97
2023-05-15T02:55:46.554Z,102594.16
2023-05-15T02:58:13.510Z,102595.88
2023-05-15T03:00:40.362Z,102598.47
2023-05-15T03:03:07.114Z,102584.63
2023-05-15T03:05:33.851Z,102593.22
2023-05-15T03:08:00.890Z,102589.81
2023-05-15T03:10:27.657Z,102590.69
2023-05-15T03:12:58.499Z,102595.00
2023-05-15T03:15:25.854Z,102590.69
2023-05-15T03:17:52.898Z,102593.28
2023-05-15T03:20:19.729Z,102590.69
2023-05-15T03:22:46.549Z,102589.78
2023-05-15T03:25:13.423Z,102594.09
2023-05-15T03:27:40.168Z,102590.63
2023-05-15T03:30:07.651Z,102587.19
2023-05-15T03:32:34.652Z,102593.19
2023-05-15T03:35:01.434Z,102597.50
2023-05-15T03:37:28.773Z,102593.16
2023-05-15T03:39:55.635Z,102597.47
2023-05-15T03:42:23.825Z,102597.47
2023-05-15T03:44:51.350Z,102587.97
2023-05-15T03:47:18.179Z,102589.75
2023-05-15T03:49:46.091Z,102588.88
2023-05-15T03:52:13.213Z,102595.78
2023-05-15T03:54:40.428Z,102597.50
2023-05-15T03:57:07.896Z,102597.47
2023-05-15T03:59:34.712Z,102593.16
2023-05-15T04:02:04.975Z,102595.75
2023-05-15T04:04:32.852Z,102592.28
2023-05-15T04:07:00.716Z,102590.53
2023-05-15T04:09:27.536Z,102587.06
2023-05-15T04:11:54.309Z,102595.72
2023-05-15T04:14:21.053Z,102591.34
2023-05-15T04:16:47.917Z,102589.59
2023-05-15T04:19:15.036Z,102595.63
2023-05-15T04:21:41.899Z,102595.59
2023-05-15T04:24:08.751Z,102596.47
2023-05-15T04:26:35.527Z,102593.00
2023-05-15T04:29:04.688Z,102593.91
2023-05-15T04:31:32.523Z,102606.00
2023-05-15T04:33:59.447Z,102593.94
2023-05-15T04:36:26.395Z,102599.97
2023-05-15T04:38:53.223Z,102594.81
2023-05-15T04:41:19.999Z,102594.81
2023-05-15T04:43:46.747Z,102594.84
2023-05-15T04:46:13.676Z,102589.69
2023-05-15T04:48:40.466Z,102591.38
2023-05-15T04:51:07.788Z,102593.94
2023-05-15T04:53:34.661Z,102593.97
2023-05-15T04:56:01.468Z,102593.03
2023-05-15T04:58:28.266Z,102591.31
2023-05-15T05:00:55.105Z,102591.38
2023-05-15T05:03:21.868Z,102591.38
2023-05-15T05:05:48.914Z,102596.56
2023-05-15T05:08:15.800Z,102588.81
2023-05-15T05:10:42.563Z,102591.41
2023-05-15T05:13:09.308Z,102589.72
2023-05-15T05:15:37.326Z,102594.88
2023-05-15T05:18:04.415Z,102591.47
2023-05-15T05:20:31.173Z,102593.25
2023-05-15T05:22:57.939Z,102591.56
2023-05-15T05:25:24.792Z,102595.06
2023-05-15T05:27:52.245Z,102598.53
2023-05-15T05:30:19.070Z,102598.53
2023-05-15T05:32:45.873Z,102600.28
2023-05-15T05:35:12.639Z,102564.81
2023-05-15T05:37:41.268Z,102607.19
2023-05-15T05:40:09.063Z,102608.91
2023-05-15T05:42:35.844Z,102613.22
2023-05-15T05:45:02.589Z,102605.31
2023-05-15T05:47:29.361Z,102615.38
2023-05-15T05:49:56.076Z,102618.25
2023-05-15T05:52:23.039Z,102611.28
2023-05-15T05:54:49.856Z,102615.13
2023-05-15T05:57:16.707Z,102614.09
2023-05-15T05:59:43.636Z,102627.13
2023-05-15T06:02:11.413Z,102635.03
2023-05-15T06:04:38.314Z,102634.28
2023-05-15T06:07:05.258Z,102631.78
2023-05-15T06:09:32.795Z,102626.59
2023-05-15T06:12:00.811Z,102630.13
2023-05-15T06:14:27.658Z,102631.81
2023-05-15T06:16:54.490Z,102622.78
2023-05-15T06:19:22.091Z,102619.66
2023-05-15T06:21:48.973Z,102626.28
2023-05-15T06:24:15.711Z,102627.91
2023-05-15T06:26:42.640Z,102619.16
2023-05-15T06:29:09.424Z,102619.06
2023-05-15T06:31:36.277Z,102619.81
2023-05-15T06:34:03.063Z,102625.72
2023-05-15T06:36:30.309Z,102628.88
2023-05-15T06:38:57.041Z,102630.00
2023-05-15T06:41:23.820Z,102630.63
2023-05-15T06:43:50.676Z,102631.47
2023-05-15T06:46:19.235Z,102626.34
2023-05-15T06:48:46.093Z,102635.00
2023-05-15T06:51:12.972Z,102632.31
2023-05-15T06:53:42.031Z,102637.69
2023-05-15T06:56:09.152Z,102625.53
2023-05-15T06:58:35.915Z,102623.34
2023-05-15T07:01:04.173Z,102619.03
2023-05-15T07:03:30.940Z,102626.00
2023-05-15T07:05:57.716Z,102625.44
2023-05-15T07:08:24.457Z,102610.84
2023-05-15T07:10:51.575Z,102626.41
2023-05-15T07:13:19.986Z,102624.81
2023-05-15T07:15:47.192Z,102624.16
2023-05-15T07:18:14.038Z,102604.66
2023-05-15T07:20:40.823Z,102622.56
2023-05-15T07:23:07.532Z,102631.09
2023-05-15T07:25:34.423Z,102630.88
2023-05-15T07:28:01.193Z,102631.56
2023-05-15T07:30:28.127Z,102628.44
2023-05-15T07:32:55.123Z,102627.00
2023-05-15T07:35:22.147Z,102631.22
2023-05-15T07:37:49.062Z,102628.59
2023-05-15T07:40:15.861Z,102626.72
2023-05-15T07:42:45.693Z,102625.94
2023-05-15T07:45:12.696Z,102612.97
2023-05-15T07:47:46.013Z,102624.59
2023-05-15T07:50:13.700Z,102619.50
2023-05-15T07:52:41.388Z,102620.97
2023-05-15T07:55:12.626Z,102615.91
2023-05-15T07:57:40.074Z,102611.97
2023-05-15T08:00:13.713Z,102612.59
2023-05-15T08:02:41.350Z,102611.41
2023-05-15T08:05:08.460Z,102624.78
2023-05-15T08:07:35.680Z,102619.16
2023-05-15T08:10:04.467Z,102599.72
2023-05-15T08:12:31.279Z,102610.19
2023-05-15T08:14:58.035Z,102610.44
2023-05-15T08:17:25.568Z,102613.66
2023-05-15T08:19:52.518Z,102609.78
2023-05-15T08:22:19.338Z,102608.94
2023-05-15T08:24:46.405Z,102609.28
2023-05-15T08:27:13.306Z,102585.56
2023-05-15T08:29:40.414Z,102602.78
2023-05-15T08:32:09.013Z,102599.78
2023-05-15T08:34:35.885Z,102605.28
2023-05-15T08:37:02.909Z,102606.56
2023-05-15T08:39:29.773Z,102603.06
2023-05-15T08:42:00.723Z,102611.09
2023-05-15T08:44:28.230Z,102607.06
2023-05-15T08:46:55.950Z,102607.38
2023-05-15T08:49:31.920Z,102604.56
2023-05-15T08:51:59.034Z,102610.53
2023-05-15T08:54:26.102Z,102612.94
2023-05-15T08:56:53.621Z,102613.47
2023-05-15T08:59:21.022Z,102606.75
2023-05-15T09:01:47.858Z,102602.03
2023-05-15T09:04:14.734Z,102598.03
2023-05-15T09:06:42.124Z,102602.84
2023-05-15T09:09:09.637Z,102603.41
2023-05-15T09:11:38.028Z,102589.75
2023-05-15T09:14:04.895Z,102590.78
2023-05-15T09:16:31.651Z,102595.66
2023-05-15T09:19:00.307Z,102602.06
2023-05-15T09:21:29.836Z,102602.50
2023-05-15T09:24:19.951Z,102600.56
2023-05-15T09:26:48.402Z,102604.34
2023-05-15T09:29:18.939Z,102607.44
2023-05-15T09:31:48.949Z,102608.78
2023-05-15T09:34:16.107Z,102607.34
2023-05-15T09:36:45.061Z,102600.13
2023-05-15T09:39:12.288Z,102586.03
2023-05-15T09:41:44.115Z,102597.47
2023-05-15T09:44:25.415Z,102608.88
2023-05-15T09:46:52.726Z,102606.06
2023-05-15T09:49:20.362Z,102596.56
2023-05-15T09:51:48.752Z,102598.66
2023-05-15T09:54:17.540Z,102595.28
2023-05-15T09:56:48.050Z,102607.34
2023-05-15T09:59:16.728Z,102605.25
2023-05-15T10:01:46.765Z,102601.69
2023-05-15T10:04:14.302Z,102586.09
2023-05-15T10:06:46.578Z,102601.41
2023-05-15T10:09:14.425Z,102596.97
2023-05-15T10:11:46.244Z,102595.00
2023-05-15T10:14:14.558Z,102592.16
2023-05-15T10:16:42.168Z,102603.97
2023-05-15T10:19:11.028Z,102596.88
2023-05-15T10:21:40.159Z,102597.25
2023-05-15T10:24:08.434Z,102602.97
2023-05-15T10:26:43.067Z,102601.34
2023-05-15T10:29:09.797Z,102603.13
2023-05-15T10:31:36.997Z,102607.28
2023-05-15T10:34:06.015Z,102605.88
2023-05-15T10:36:34.737Z,102596.16
2023-05-15T10:39:03.304Z,102607.38
2023-05-15T10:41:31.259Z,102607.69
2023-05-15T10:44:00.493Z,102609.06
2023-05-15T10:46:29.170Z,102615.16
2023-05-15T10:48:56.486Z,102612.84
2023-05-15T10:51:31.891Z,102619.25
2023-05-15T10:54:00.972Z,102615.91
2023-05-15T10:56:31.269Z,102612.69
2023-05-15T10:58:58.517Z,102620.03
2023-05-15T11:01:33.404Z,102610.25
2023-05-15T11:04:22.893Z,102600.41
2023-05-15T11:06:50.970Z,102611.81
2023-05-15T11:09:36.844Z,102622.03
2023-05-15T11:12:05.795Z,102613.44
2023-05-15T11:14:42.700Z,102612.63
2023-05-15T11:17:12.103Z,102616.72
2023-05-15T11:19:49.355Z,102614.38
2023-05-15T11:22:23.154Z,102613.88
2023-05-15T11:24:50.224Z,102614.72
2023-05-15T11:27:19.651Z,102620.38
2023-05-15T11:30:11.501Z,102620.97
2023-05-15T11:32:54.544Z,102619.94
2023-05-15T11:35:42.393Z,102620.31
2023-05-15T11:38:17.650Z,102608.00
2023-05-15T11:41:00.353Z,102615.19
2023-05-15T11:43:27.944Z,102624.28
2023-05-15T11:45:59.045Z,102613.63
2023-05-15T11:48:30.543Z,102613.91
2023-05-15T11:50:57.498Z,102613.34
2023-05-15T11:53:25.012Z,102614.31
2023-05-15T11:55:54.901Z,102614.38
2023-05-15T11:58:23.555Z,102615.84
2023-05-15T12:00:52.273Z,102611.00
2023-05-15T12:03:25.307Z,102604.88
2023-05-15T12:05:59.665Z,102606.94
2023-05-15T12:08:32.522Z,102608.56
2023-05-15T12:11:00.787Z,102602.78
2023-05-15T12:13:27.794Z,102599.00
2023-05-15T12:15:56.008Z,102603.22
2023-05-15T12:18:23.174Z,102606.25
2023-05-15T12:20:52.816Z,102599.28
2023-05-15T12:23:22.862Z,102605.13
2023-05-15T12:25:55.122Z,102605.25
2023-05-15T12:28:22.802Z,102607.97
2023-05-15T12:30:50.022Z,102607.91
2023-05-15T12:33:17.350Z,102608.38
2023-05-15T12:35:52.554Z,102610.34
2023-05-15T12:38:22.382Z,102611.69
2023-05-15T12:40:53.829Z,102610.16
2023-05-15T12:43:23.703Z,102608.59
2023-05-15T12:45:53.212Z,102616.22
2023-05-15T12:48:20.648Z,102612.28
2023-05-15T12:50:48.038Z,102613.59
2023-05-15T12:53:16.386Z,102606.44
2023-05-15T12:55:46.845Z,102615.03
2023-05-15T12:58:18.728Z,102609.50
2023-05-15T13:00:48.040Z,102622.56
2023-05-15T13:03:15.553Z,102622.19
2023-05-15T13:05:45.621Z,102621.53
2023-05-15T13:08:17.731Z,102623.03
2023-05-15T13:10:45.691Z,102629.00
2023-05-15T13:13:12.702Z,102630.84
2023-05-15T13:15:46.273Z,102637.03
2023-05-15T13:18:15.150Z,102634.38
2023-05-15T13:20:51.802Z,102633.06
2023-05-15T13:23:21.461Z,102627.66
2023-05-15T13:25:48.205Z,102630.50
2023-05-15T13:28:16.204Z,102627.00
2023-05-15T13:30:43.202Z,102628.06
2023-05-15T13:33:12.578Z,102639.28
2023-05-15T13:35:40.429Z,102636.19
2023-05-15T13:38:10.350Z,102639.03
2023-05-15T13:40:38.692Z,102639.63
2023-05-15T13:43:08.732Z,102635.38
2023-05-15T13:45:35.526Z,102637.31
2023-05-15T13:48:02.429Z,102639.81
2023-05-15T13:50:29.296Z,102631.94
2023-05-15T13:52:56.193Z,102641.88
2023-05-15T13:55:23.508Z,102639.91
2023-05-15T13:57:51.523Z,102639.72
2023-05-15T14:00:19.842Z,102635.53
2023-05-15T14:02:46.799Z,102644.53
2023-05-15T14:05:15.300Z,102636.88
2023-05-15T14:07:42.832Z,102632.28
2023-05-15T14:10:10.523Z,102631.59
2023-05-15T14:12:38.380Z,102633.88
2023-05-15T14:15:05.991Z,102636.81
2023-05-15T14:17:32.935Z,102629.63
2023-05-15T14:19:59.742Z,102629.03
2023-05-15T14:22:26.588Z,102621.94
2023-05-15T14:24:53.719Z,102625.47
2023-05-15T14:27:21.025Z,102630.53
2023-05-15T14:29:49.352Z,102634.63
2023-05-15T14:32:17.175Z,102627.41
2023-05-15T14:34:44.446Z,102633.91
2023-05-15T14:37:11.320Z,102626.97
2023-05-15T14:39:38.104Z,102626.88
2023-05-15T14:42:06.381Z,102627.97
2023-05-15T14:44:33.919Z,102629.78
2023-05-15T14:47:16.942Z,102637.09
2023-05-15T14:49:43.750Z,102628.00
2023-05-15T14:52:12.309Z,102626.78
2023-05-15T14:54:39.823Z,102629.84
2023-05-15T14:57:07.463Z,102630.09
2023-05-15T14:59:34.351Z,102631.63
2023-05-15T15:02:01.265Z,102623.06
2023-05-15T15:04:30.604Z,102630.13
2023-05-15T15:06:57.553Z,102626.50
2023-05-15T15:09:25.483Z,102622.69
2023-05-15T15:11:53.174Z,102623.75
2023-05-15T15:14:20.047Z,102622.59
2023-05-15T15:16:46.928Z,102622.13
2023-05-15T15:19:16.104Z,102621.44
2023-05-15T15:21:44.329Z,102617.69
2023-05-15T15:24:11.241Z,102596.59
2023-05-15T15:26:38.015Z,102606.34
2023-05-15T15:29:04.747Z,102600.72
2023-05-15T15:31:32.040Z,102603.41
2023-05-15T15:33:59.482Z,102607.78
2023-05-15T15:36:26.324Z,102615.47
2023-05-15T15:38:53.433Z,102616.13
2023-05-15T15:41:21.676Z,102610.59
2023-05-15T15:43:48.551Z,102617.00
2023-05-15T15:46:15.648Z,102619.19
2023-05-15T15:48:42.444Z,102620.47
2023-05-15T15:51:09.344Z,102625.44
2023-05-15T15:53:36.180Z,102615.09
2023-05-15T15:56:03.039Z,102626.22
2023-05-15T15:58:30.103Z,102620.16
2023-05-15T16:00:57.827Z,102612.59
2023-05-15T16:03:24.911Z,102617.31
2023-05-15T16:05:51.959Z,102619.03
2023-05-15T16:08:18.867Z,102621.03
2023-05-15T16:10:45.790Z,102622.31
2023-05-15T16:13:12.551Z,102607.78
2023-05-15T16:15:39.345Z,102613.34
2023-05-15T16:18:06.181Z,102616.72
2023-05-15T16:20:35.111Z,102611.75
2023-05-15T16:23:02.227Z,102611.81
2023-05-15T16:25:29.010Z,102618.47
2023-05-15T16:27:55.792Z,102629.84
2023-05-15T16:30:24.643Z,102626.09
2023-05-15T16:32:55.246Z,102629.88
2023-05-15T16:35:22.376Z,102629.50
2023-05-15T16:37:49.299Z,102627.69
2023-05-15T16:40:16.176Z,102628.84
2023-05-15T16:42:43.255Z,102623.50
2023-05-15T16:45:10.234Z,102618.56
2023-05-15T16:47:39.299Z,102625.06
2023-05-15T16:50:07.306Z,102626.13
2023-05-15T16:52:34.124Z,102623.22
2023-05-15T16:55:00.925Z,102616.72
2023-05-15T16:57:27.768Z,102626.06
2023-05-15T16:59:55.060Z,102625.09
2023-05-15T17:02:21.859Z,102617.28
2023-05-15T17:04:48.767Z,102619.56
2023-05-15T17:07:15.524Z,102626.28
2023-05-15T17:09:44.569Z,102613.94
2023-05-15T17:12:11.848Z,102622.66
2023-05-15T17:14:38.663Z,102624.59
2023-05-15T17:17:05.406Z,102628.44
2023-05-15T17:19:35.131Z,102636.56
2023-05-15T17:22:01.972Z,102625.06
2023-05-15T17:24:42.242Z,102626.91
2023-05-15T17:27:16.580Z,102631.59
2023-05-15T17:29:43.421Z,102633.41
2023-05-15T17:32:10.829Z,102621.03
2023-05-15T17:34:37.864Z,102623.22
2023-05-15T17:37:04.868Z,102615.59
2023-05-15T17:39:31.612Z,102628.97
2023-05-15T17:41:58.399Z,102624.94
2023-05-15T17:44:29.834Z,102626.34
2023-05-15T17:46:57.942Z,102631.63
2023-05-15T17:49:25.109Z,102624.78
2023-05-15T17:51:52.162Z,102635.66
2023-05-15T17:54:19.234Z,102630.38
2023-05-15T17:56:46.206Z,102632.97
2023-05-15T17:59:13.020Z,102623.28
2023-05-15T18:01:40.076Z,102626.44
2023-05-15T18:04:06.888Z,102628.94
2023-05-15T18:06:36.407Z,102633.53
2023-05-15T18:09:03.416Z,102628.72
2023-05-15T18:11:30.241Z,102634.72
2023-05-15T18:13:57.084Z,102633.00
2023-05-15T18:16:24.094Z,102634.94
2023-05-15T18:18:52.264Z,102638.28
2023-05-15T18:21:19.275Z,102629.06
2023-05-15T18:23:46.138Z,102630.22
2023-05-15T18:26:13.045Z,102633.78
2023-05-15T18:28:39.819Z,102629.50
2023-05-15T18:31:06.803Z,102645.63
2023-05-15T18:33:34.281Z,102649.31
2023-05-15T18:36:01.086Z,102633.59
2023-05-15T18:38:28.227Z,102651.38
2023-05-15T18:40:55.190Z,102647.00
2023-05-15T18:43:21.920Z,102645.09
2023-05-15T18:45:48.689Z,102655.16
2023-05-15T18:48:15.719Z,102649.91
2023-05-15T18:50:42.664Z,102652.00
2023-05-15T18:53:09.529Z,102656.38
2023-05-15T18:55:36.507Z,102650.16
2023-05-15T18:58:03.286Z,102654.09
2023-05-15T19:00:38.120Z,102653.19
2023-05-15T19:03:06.283Z,102656.28
2023-05-15T19:05:34.684Z,102659.28
2023-05-15T19:08:01.721Z,102650.78
2023-05-15T19:10:29.763Z,102656.31
2023-05-15T19:12:57.474Z,102660.78
2023-05-15T19:15:25.010Z,102656.47
2023-05-15T19:17:52.299Z,102657.97
2023-05-15T19:20:19.295Z,102675.69
2023-05-15T19:22:46.312Z,102676.09
2023-05-15T19:25:13.388Z,102681.81
2023-05-15T19:27:40.211Z,102689.81
2023-05-15T19:30:07.921Z,102680.69
2023-05-15T19:32:34.983Z,102672.41
2023-05-15T19:35:02.079Z,102693.44
2023-05-15T19:37:29.177Z,102698.28
2023-05-15T19:39:56.965Z,102702.13
2023-05-15T19:42:23.715Z,102704.41
2023-05-15T19:44:50.439Z,102698.84
2023-05-15T19:47:17.446Z,102681.28
2023-05-15T19:49:44.207Z,102701.59
2023-05-15T19:52:10.919Z,102694.13
2023-05-15T19:54:37.687Z,102698.91
2023-05-15T19:57:04.526Z,102695.84
2023-05-15T19:59:31.226Z,102704.16
2023-05-15T20:01:58.056Z,102707.31
2023-05-15T20:04:26.099Z,102717.34
2023-05-15T20:06:53.302Z,102714.25
2023-05-15T20:09:20.170Z,102705.94
2023-05-15T20:11:46.950Z,102723.72
2023-05-15T20:14:14.626Z,102716.25
2023-05-15T20:16:41.521Z,102723.47
2023-05-15T20:19:08.360Z,102721.16
2023-05-15T20:21:35.146Z,102723.25
2023-05-15T20:24:01.958Z,102714.94
2023-05-15T20:26:28.681Z,102716.09
2023-05-15T20:28:55.625Z,102723.31
2023-05-15T20:31:22.507Z,102720.13
2023-05-15T20:33:49.265Z,102723.75
2023-05-15T20:36:16.826Z,102727.50
2023-05-15T20:38:45.069Z,102732.06
2023-05-15T20:41:11.918Z,102736.63
2023-05-15T20:43:39.211Z,102750.00
2023-05-15T20:46:09.110Z,102749.34
2023-05-15T20:48:36.594Z,102747.81
2023-05-15T20:51:03.398Z,102750.59
2023-05-15T20:53:30.216Z,102755.13
2023-05-15T20:55:57.013Z,102744.03
2023-05-15T20:58:23.787Z,102763.25
2023-05-15T21:00:50.711Z,102758.16
2023-05-15T21:03:17.657Z,102759.25
2023-05-15T21:05:44.866Z,102765.38
2023-05-15T21:08:11.791Z,102766.31
2023-05-15T21:10:38.748Z,102775.13
2023-05-15T21:13:05.553Z,102783.91
2023-05-15T21:15:32.477Z,102771.88
2023-05-15T21:17:59.284Z,102784.91
2023-05-15T21:20:27.325Z,102785.91
2023-05-15T21:22:54.345Z,102792.13
2023-05-15T21:25:21.636Z,102791.41
2023-05-15T21:27:48.357Z,102801.09
2023-05-15T21:30:15.586Z,102796.78
2023-05-15T21:32:42.453Z,102796.78
2023-05-15T21:35:10.052Z,102806.34
2023-05-15T21:37:37.033Z,102803.78
2023-05-15T21:40:04.822Z,102802.03
2023-05-15T21:42:32.259Z,102811.66
2023-05-15T21:44:59.539Z,102810.78
2023-05-15T21:47:26.306Z,102809.94
2023-05-15T21:49:53.034Z,102817.78
2023-05-15T21:52:19.824Z,102808.22
2023-05-15T21:54:46.616Z,102811.69
2023-05-15T21:57:13.360Z,102814.34
2023-05-15T21:59:40.234Z,102816.97
2023-05-15T22:02:07.590Z,102810.91
2023-05-15T22:04:34.675Z,102815.28
2023-05-15T22:07:01.629Z,102820.50
2023-05-15T22:09:28.438Z,102817.97
2023-05-15T22:11:55.165Z,102814.63
2023-05-15T22:14:22.009Z,102815.56
2023-05-15T22:16:48.897Z,102813.13
2023-05-15T22:19:28.903Z,102815.00
2023-05-15T22:21:59.324Z,102815.13
2023-05-15T22:24:26.049Z,102813.53
2023-05-15T22:26:52.822Z,102819.72
2023-05-15T22:29:20.071Z,102798.19
2023-05-15T22:31:46.828Z,102823.34
2023-05-15T22:34:13.858Z,102814.72
2023-05-15T22:36:41.616Z,102811.25
2023-05-15T22:39:08.355Z,102817.41
2023-05-15T22:41:35.129Z,102815.72
2023-05-15T22:44:02.744Z,102817.50
2023-05-15T22:46:29.570Z,102811.47
2023-05-15T22:48:59.159Z,102812.41
2023-05-15T22:51:27.146Z,102812.47
2023-05-15T22:53:53.901Z,102825.50
2023-05-15T22:56:21.490Z,102828.09
2023-05-15T22:58:48.346Z,102824.63
2023-05-15T23:01:15.211Z,102823.78
2023-05-15T23:03:42.062Z,102822.13
2023-05-15T23:06:08.938Z,102823.88
2023-05-15T23:08:35.809Z,102827.41
2023-05-15T23:11:02.667Z,102830.03
2023-05-15T23:13:29.523Z,102833.50
2023-05-15T23:15:56.298Z,102825.72
2023-05-15T23:18:23.031Z,102835.28
2023-05-15T23:20:50.563Z,102834.44
2023-05-15T23:23:17.435Z,102828.41
2023-05-15T23:25:44.172Z,102831.06
2023-05-15T23:28:11.160Z,102837.13
2023-05-15T23:30:37.893Z,102836.28
2023-05-15T23:33:04.702Z,102837.16
2023-05-15T23:35:31.589Z,102831.97
2023-05-15T23:37:58.350Z,102831.13
2023-05-15T23:40:25.408Z,102822.47
2023-05-15T23:42:52.452Z,102824.22
2023-05-15T23:45:19.558Z,102817.31
2023-05-15T23:47:46.757Z,102823.41
2023-05-15T23:50:13.610Z,102822.56
2023-05-15T23:52:40.399Z,102826.91
2023-05-15T23:55:07.954Z,102820.84
2023-05-15T23:57:34.749Z,102818.28
